Latest Weather Observations for Dennes Point

IDT60801

Issued at 3:31 pm EST Tuesday 28 July 2015 (issued every 30 minutes, with the page automatically refreshed every 10 minutes)

About weather observations | Map of weather stations | Latest weather observations for TAS | Other Formats
Station Details ID: 094255 Name: DENNES POINT Lat: -43.06 Lon: 147.36 Height: 5.67 m
Data from the previous 72 hours. | See also: Recent months at Dennes Point
Date/Time
EST
Temp
°C
App
Temp
°C
Dew
Point
Rel
Hum
%
Delta-T
°C
Wind Press
QNH
hPa
Press
MSL
hPa
Rain
since 9 am
mm
Dir
 
Spd
km/h
Gust
km/h
Spd
kts
Gust
kts
28/03:30pm 12.9 9.0 7.1 68 2.8 WSW 17 26 9 14 1024.5 1024.5 0.0
28/03:00pm 14.0 9.6 7.3 64 3.3 WSW 20 30 11 16 1024.1 1024.1 0.0
28/02:30pm 13.6 9.4 7.6 67 2.9 WSW 19 26 10 14 1024.1 1024.1 0.0
28/02:00pm 14.3 10.4 7.1 62 3.5 WSW 17 26 9 14 1024.1 1024.1 0.0
28/01:30pm 13.7 9.8 7.2 65 3.2 SW 17 20 9 11 1024.2 1024.2 0.0
28/01:00pm 12.4 8.1 6.9 69 2.6 WSW 19 24 10 13 1024.2 1024.2 0.0
28/12:30pm 13.8 8.6 7.3 65 3.2 WSW 24 28 13 15 1024.3 1024.3 0.0
28/12:00pm 13.4 9.0 7.4 67 2.9 WSW 20 24 11 13 1024.7 1024.7 0.0
28/11:30am 13.2 8.9 7.2 67 2.9 WSW 19 24 10 13 1025.1 1025.1 0.0
28/11:00am 13.1 9.2 7.1 67 2.9 WSW 17 20 9 11 1025.3 1025.3 0.0
28/10:30am 13.2 9.6 6.8 65 3.1 WSW 15 19 8 10 1025.4 1025.4 0.0
28/10:00am 12.3 9.9 7.0 70 2.5 WNW 9 15 5 8 1025.2 1025.2 0.0
28/09:30am 10.7 8.6 6.5 75 2.0 NNW 7 9 4 5 1025.0 1025.0 0.0
28/09:00am 10.8 8.8 6.2 73 2.1 N 6 9 3 5 1024.8 1024.8 0.0
28/08:30am 10.2 8.6 6.2 76 1.9 NNW 4 6 2 3 1024.7 1024.7 0.0
28/08:00am 9.1 6.9 5.1 76 1.8 WSW 6 7 3 4 1024.2 1024.2 0.0
28/07:30am 9.2 7.4 5.2 76 1.8 WSW 4 4 2 2 1024.0 1024.0 0.0
28/07:00am 9.3 5.9 5.7 78 1.6 WSW 13 19 7 10 1023.6 1023.6 0.0
28/06:30am 9.3 5.0 5.3 76 1.8 WSW 17 20 9 11 1023.2 1023.2 0.0
28/06:00am 9.3 4.7 5.5 77 1.7 WSW 19 26 10 14 1022.8 1022.8 0.0
28/05:30am 9.4 4.5 5.2 75 1.9 WSW 20 26 11 14 1022.4 1022.4 0.0
28/05:00am 9.6 3.9 4.8 72 2.1 WSW 24 33 13 18 1022.2 1022.2 0.0
28/04:30am 9.6 4.3 5.2 74 2.0 WSW 22 28 12 15 1021.8 1021.8 0.0
28/04:00am 9.5 4.8 5.3 75 1.9 WSW 19 24 10 13 1021.6 1021.6 0.0
28/03:30am 9.3 4.4 4.9 74 2.0 WSW 20 30 11 16 1021.4 1021.4 0.0
28/03:00am 9.5 4.2 4.9 73 2.1 W 22 33 12 18 1021.5 1021.5 0.0
28/02:30am 9.4 4.0 4.6 72 2.1 W 22 28 12 15 1021.2 1021.2 0.0
28/02:00am 9.2 6.8 4.4 72 2.1 WNW 6 9 3 5 1021.3 1021.3 0.0
28/01:30am 9.5 5.5 4.7 72 2.1 W 15 19 8 10 1021.0 1021.0 0.0
28/01:00am 8.9 4.8 4.5 74 1.9 WSW 15 19 8 10 1020.9 1020.9 0.0
28/12:30am 8.7 5.1 4.9 77 1.7 WSW 13 17 7 9 1020.8 1020.8 0.0
28/12:00am 8.9 5.4 5.6 80 1.5 WNW 13 17 7 9 1020.7 1020.7 0.0
 
Date/Time
EST
Temp
°C
App
Temp
°C
Dew
Point
Rel
Hum
%
Delta-T
°C
Wind Press
QNH
hPa
Press
MSL
hPa
Rain
since 9 am
mm
Dir
 
Spd
km/h
Gust
km/h
Spd
kts
Gust
kts
27/11:30pm 8.7 5.2 5.6 81 1.4 WNW 13 17 7 9 1020.9 1020.9 0.0
27/11:00pm 9.5 4.4 5.9 78 1.6 WSW 22 35 12 19 1020.9 1020.9 0.0
27/10:30pm 8.4 6.1 5.0 79 1.5 SW 6 11 3 6 1020.9 1020.9 0.0
27/10:00pm 8.3 6.0 4.7 78 1.6 SW 6 7 3 4 1020.4 1020.4 0.0
27/09:30pm 8.6 5.7 4.6 76 1.8 SW 9 17 5 9 1020.3 1020.3 0.0
27/09:00pm 8.9 5.3 5.1 77 1.7 WSW 13 22 7 12 1020.0 1020.0 0.0
27/08:30pm 8.7 5.5 5.3 79 1.5 WSW 11 19 6 10 1019.6 1019.6 0.0
27/08:00pm 8.4 5.5 4.6 77 1.7 WSW 9 15 5 8 1019.6 1019.6 0.0
27/07:30pm 8.8 4.0 4.8 76 1.8 W 19 22 10 12 1019.3 1019.3 0.0
27/07:00pm 9.1 4.1 4.7 74 1.9 W 20 26 11 14 1019.1 1019.1 0.0
27/06:30pm 9.1 4.1 4.7 74 2.0 W 20 24 11 13 1018.6 1018.6 0.0
27/06:00pm 9.3 4.4 4.9 74 2.0 W 20 28 11 15 1018.5 1018.5 0.0
27/05:30pm 9.5 4.1 4.7 72 2.1 WSW 22 30 12 16 1018.1 1018.1 0.0
27/05:00pm 9.8 5.4 5.0 72 2.2 WSW 17 24 9 13 1017.7 1017.7 0.0
27/04:30pm 10.1 5.1 4.5 68 2.5 WSW 20 28 11 15 1017.3 1017.3 0.0
27/04:00pm 10.2 5.6 5.4 72 2.2 WSW 19 26 10 14 1016.9 1016.9 0.0
27/03:30pm 10.0 5.3 5.0 71 2.3 WSW 19 24 10 13 1016.6 1016.6 0.0
27/03:00pm 10.8 5.5 4.9 67 2.7 WSW 22 30 12 16 1016.4 1016.4 0.0
27/02:30pm 10.9 5.9 4.8 66 2.8 WSW 20 28 11 15 1016.1 1016.1 0.0
27/02:00pm 11.3 5.1 4.3 62 3.1 WSW 26 35 14 19 1015.5 1015.5 0.0
27/01:30pm 11.1 3.8 4.3 63 3.0 WSW 32 41 17 22 1015.0 1015.0 0.0
27/01:00pm 11.4 4.9 4.6 63 3.1 WSW 28 39 15 21 1015.1 1015.1 0.0
27/12:30pm 11.2 4.3 4.4 63 3.1 WSW 30 41 16 22 1015.1 1015.1 0.0
27/12:00pm 10.7 5.2 4.2 64 2.9 WSW 22 32 12 17 1015.4 1015.4 0.0
27/11:30am 9.5 4.9 3.9 68 2.5 WSW 17 24 9 13 1015.8 1015.8 0.0
27/11:00am 9.7 6.0 4.3 69 2.4 W 13 19 7 10 1015.8 1015.8 0.0
27/10:30am 8.0 3.7 3.3 72 2.0 W 15 20 8 11 1015.8 1015.8 0.0
27/10:00am 7.8 3.2 3.5 74 1.8 W 17 20 9 11 1015.6 1015.6 0.0
27/09:30am 7.5 3.1 2.8 72 2.0 WSW 15 19 8 10 1015.4 1015.4 0.0
27/09:00am 7.3 2.6 3.0 74 1.8 W 17 26 9 14 1015.1 1015.1 4.6
27/08:30am 7.1 0.5 2.2 71 2.0 WSW 26 33 14 18 1014.8 1014.8 4.6
27/08:00am 6.5 1.6 1.8 72 1.9 W 17 24 9 13 1014.6 1014.6 4.6
27/07:30am 6.2 -0.4 2.1 75 1.7 WSW 26 35 14 19 1014.2 1014.2 4.6
27/07:00am 6.0 -1.7 2.1 76 1.6 WSW 32 43 17 23 1013.6 1013.6 4.6
27/06:30am 5.5 -1.5 2.0 78 1.4 WSW 28 37 15 20 1013.2 1013.2 4.6
27/06:00am 5.5 -1.5 2.0 78 1.4 WSW 28 37 15 20 1013.0 1013.0 4.6
27/05:30am 5.8 -2.9 1.7 75 1.6 WSW 37 46 20 25 1011.8 1011.8 4.6
27/05:00am 5.8 -5.1 1.3 73 1.8 WSW 48 61 26 33 1010.7 1010.7 4.6
27/04:30am 6.1 -4.9 0.6 68 2.1 WSW 48 65 26 35 1010.4 1010.4 4.6
27/04:21am 6.1 -3.5 1.1 70 2.0 WSW 41 63 22 34 1010.5 1010.5 4.6
27/04:00am 5.6 -3.6 1.3 74 1.7 WSW 39 54 21 29 1010.1 1010.1 4.6
27/03:30am 5.7 -4.2 1.6 75 1.6 WSW 43 54 23 29 1009.7 1009.7 4.6
27/03:00am 5.3 -2.5 1.4 76 1.5 WSW 32 44 17 24 1009.9 1009.9 4.6
27/02:30am 5.2 -3.9 1.7 78 1.4 WSW 39 50 21 27 1009.3 1009.3 4.6
27/02:16am 5.2 -4.0 1.5 77 1.5 WSW 39 59 21 32 1009.0 1009.0 4.6
27/02:00am 5.4 -4.6 1.3 75 1.6 WSW 43 57 23 31 1008.8 1008.8 4.6
27/01:31am 6.1 -3.1 1.2 71 1.9 WSW 39 59 21 32 1008.0 1008.0 4.6
27/01:30am 6.1 -2.7 1.2 71 1.9 WSW 37 54 20 29 1008.1 1008.1 4.6
27/01:00am 6.2 -3.1 0.7 68 2.2 WSW 39 52 21 28 1007.4 1007.4 4.6
27/12:30am 6.4 -1.7 0.7 67 2.2 WSW 33 46 18 25 1007.1 1007.1 4.6
27/12:00am 6.4 -3.6 1.1 69 2.1 WSW 43 57 23 31 1006.1 1006.1 4.6
 
Date/Time
EST
Temp
°C
App
Temp
°C
Dew
Point
Rel
Hum
%
Delta-T
°C
Wind Press
QNH
hPa
Press
MSL
hPa
Rain
since 9 am
mm
Dir
 
Spd
km/h
Gust
km/h
Spd
kts
Gust
kts
26/11:39pm 6.5 -1.0 1.0 68 2.2 WSW 30 50 16 27 1005.6 1005.6 4.6
26/11:30pm 6.6 0.3 1.5 70 2.0 WSW 24 41 13 22 1005.6 1005.6 4.6
26/11:00pm 6.7 -1.9 2.4 74 1.8 WSW 37 46 20 25 1004.6 1004.6 4.6
26/10:30pm 6.4 -1.7 3.4 81 1.3 WSW 35 46 19 25 1003.9 1003.9 4.6
26/10:05pm 6.5 -2.7 3.3 80 1.3 WSW 41 59 22 32 1003.2 1003.2 4.4
26/10:00pm 6.5 -2.7 3.7 82 1.2 WSW 41 50 22 27 1003.2 1003.2 4.4
26/09:30pm 6.7 -2.4 4.0 83 1.2 WSW 41 52 22 28 1002.5 1002.5 4.2
26/09:00pm 6.6 -3.1 3.9 83 1.2 WSW 44 59 24 32 1001.8 1001.9 4.0
26/08:30pm 6.8 -3.7 3.9 82 1.2 WSW 48 67 26 36 1000.7 1000.8 2.8
26/08:00pm 7.8 -1.9 3.8 76 1.7 WSW 44 67 24 36 999.3 999.4 2.0
26/07:51pm 8.0 -1.5 3.7 74 1.8 WSW 43 67 23 36 998.6 998.7 2.0
26/07:30pm 8.1 -1.6 3.9 75 1.8 WSW 44 59 24 32 998.3 998.4 2.0
26/07:15pm 8.0 -1.1 4.0 76 1.7 WSW 41 61 22 33 997.4 997.5 2.0
26/07:00pm 7.5 1.0 4.5 81 1.3 WSW 28 37 15 20 997.5 997.6 2.0
26/06:30pm 7.4 1.7 4.7 83 1.2 W 24 30 13 16 996.9 997.0 1.6
26/06:00pm 7.4 0.1 4.7 83 1.2 W 32 44 17 24 995.5 995.6 1.2
26/05:45pm 8.3 0.8 4.3 76 1.7 WSW 33 52 18 28 995.6 995.7 0.4
26/05:30pm 8.4 1.0 3.8 73 2.0 WSW 32 43 17 23 994.6 994.6 0.2
26/05:00pm 7.9 -0.5 3.8 75 1.8 W 37 43 20 23 993.1 993.1 0.2
26/04:30pm 8.3 2.1 4.1 75 1.8 WNW 26 46 14 25 993.1 993.1 0.2
26/04:00pm 8.2 1.5 3.7 73 2.0 W 28 43 15 23 992.9 992.9 0.2
26/03:30pm 9.0 1.5 3.6 69 2.3 W 32 43 17 23 992.8 992.8 0.2
26/03:20pm 9.6 2.9 3.6 66 2.6 W 28 48 15 26 992.4 992.4 0.2
26/03:19pm 9.3 2.5 3.3 66 2.6 W 28 44 15 24 992.4 992.4 0.2
26/03:00pm 9.1 4.8 3.1 66 2.6 NNW 15 26 8 14 991.9 991.9 0.2
26/02:30pm 8.8 5.3 3.6 70 2.2 NW 11 28 6 15 992.2 992.2 0.2
26/02:00pm 8.2 3.9 3.5 72 2.0 NW 15 30 8 16 991.7 991.7 0.2
26/01:34pm 8.4 1.2 3.1 69 2.3 WNW 30 48 16 26 992.1 992.1 0.2
26/01:30pm 8.9 2.8 2.5 64 2.7 WNW 24 48 13 26 991.9 991.9 0.2
26/01:00pm 9.8 4.8 1.5 56 3.5 NNW 17 35 9 19 991.2 991.2 0.2
26/12:30pm 9.5 3.3 2.1 60 3.1 N 24 37 13 20 990.4 990.4 0.2
26/12:00pm 9.0 3.9 1.0 57 3.3 NW 17 37 9 20 991.0 991.0 0.2
26/11:30am 9.4 3.1 1.6 58 3.2 NNW 24 56 13 30 991.3 991.3 0.2
26/11:25am 9.4 3.0 1.1 56 3.4 NW 24 56 13 30 991.2 991.2 0.2
26/11:24am 9.4 3.0 0.8 55 3.5 NNW 24 56 13 30 991.3 991.3 0.2
26/11:00am 9.2 4.9 1.1 57 3.3 NNW 13 26 7 14 991.7 991.7 0.2
26/10:30am 9.2 4.2 1.4 58 3.2 NW 17 35 9 19 991.1 991.1 0.2
26/10:00am 8.2 -0.1 2.2 66 2.5 NNW 35 57 19 31 990.8 990.8 0.2
26/09:30am 8.1 -0.7 1.5 63 2.7 NNW 37 69 20 37 991.8 991.8 0.0
26/09:05am 8.2 -2.4 1.1 61 2.9 NW 46 82 25 44 991.1 991.1 0.0
26/09:00am 8.4 -1.2 1.3 61 2.9 NW 41 63 22 34 991.2 991.2 1.2
26/08:43am 9.0 1.0 1.4 59 3.1 NNW 33 59 18 32 991.7 991.7 1.2
26/08:30am 8.2 0.3 2.4 67 2.4 NNW 33 52 18 28 991.8 991.8 1.2
26/08:24am 7.8 0.1 2.3 68 2.3 NNW 32 52 17 28 992.0 992.0 1.2
26/08:00am 8.1 0.6 3.2 71 2.1 NNW 32 43 17 23 992.5 992.5 1.2
26/07:30am 8.2 1.1 1.6 63 2.7 NNW 28 50 15 27 992.4 992.4 1.2
26/07:04am 7.8 0.2 2.7 70 2.1 NW 32 50 17 27 993.2 993.2 1.0
26/07:00am 7.8 0.8 2.1 67 2.4 NNW 28 52 15 28 993.1 993.1 1.0
26/06:57am 7.9 1.7 2.4 68 2.3 NNW 24 52 13 28 993.3 993.3 0.8
26/06:30am 7.7 2.1 3.7 76 1.7 NNW 22 30 12 16 992.8 992.8 0.8
26/06:00am 7.0 2.0 3.4 78 1.5 NNW 19 24 10 13 992.5 992.5 0.8
26/05:36am 6.9 -0.7 2.6 74 1.8 NW 32 52 17 28 992.8 992.8 0.8
26/05:30am 7.2 -0.4 2.9 74 1.8 NW 32 46 17 25 993.0 993.0 0.8
26/05:00am 7.6 -0.9 2.9 72 2.0 NW 37 57 20 31 993.6 993.6 0.4
26/04:41am 8.3 -0.4 2.1 65 2.6 NNW 37 59 20 32 992.1 992.1 0.2
26/04:34am 9.0 1.3 2.3 63 2.8 NNW 32 54 17 29 992.6 992.6 0.2
26/04:30am 9.1 1.8 2.4 63 2.8 NNW 30 43 16 23 992.5 992.5 0.2
26/04:00am 9.1 2.3 1.0 57 3.3 NW 26 37 14 20 992.5 992.5 0.2
26/03:40am 9.6 2.5 1.3 56 3.4 NNW 28 50 15 27 992.7 992.7 0.2
26/03:30am 9.6 3.3 1.3 56 3.4 NNW 24 33 13 18 993.0 993.0 0.2
26/03:00am 9.5 4.1 2.6 62 3.0 NNW 20 30 11 16 993.2 993.2 0.2
26/02:30am 9.4 4.7 3.2 65 2.7 NNW 17 26 9 14 993.8 993.8 0.2
26/02:00am 9.6 5.1 4.0 68 2.5 NNW 17 24 9 13 993.6 993.6 0.2
26/01:30am 9.8 5.3 4.0 67 2.6 NW 17 33 9 18 994.3 994.3 0.2
26/01:00am 9.6 5.2 4.8 72 2.2 NNW 17 30 9 16 994.7 994.7 0.2
26/12:30am 9.3 4.1 5.3 76 1.8 W 22 28 12 15 994.7 994.7 0.2
26/12:00am 10.3 7.1 4.9 69 2.5 NNW 11 22 6 12 995.0 995.1 0.0
 
Date/Time
EST
Temp
°C
App
Temp
°C
Dew
Point
Rel
Hum
%
Delta-T
°C
Wind Press
QNH
hPa
Press
MSL
hPa
Rain
since 9 am
mm
Dir
 
Spd
km/h
Gust
km/h
Spd
kts
Gust
kts
25/11:30pm 9.9 5.3 5.5 74 2.0 ENE 19 22 10 12 994.6 994.6 0.0
25/11:00pm 9.7 2.9 4.9 72 2.2 NE 30 37 16 20 994.8 994.9 0.0
25/10:30pm 9.3 0.8 5.3 76 1.8 NNE 39 46 21 25 995.6 995.7 0.0
25/10:00pm 9.5 1.0 5.3 75 1.9 NNE 39 50 21 27 996.1 996.2 0.0
25/09:30pm 9.7 3.6 4.9 72 2.2 NE 26 33 14 18 997.4 997.5 0.0
25/09:00pm 9.7 4.3 4.7 71 2.3 NE 22 30 12 16 997.9 998.0 0.0
25/08:30pm 9.9 5.0 5.1 72 2.2 NE 20 32 11 17 998.5 998.6 0.0
25/08:00pm 10.1 5.3 4.7 69 2.4 NNE 19 24 10 13 999.3 999.4 0.0
25/07:30pm 10.5 4.9 3.3 61 3.1 NNW 22 28 12 15 999.9 1000.0 0.0
25/07:00pm 10.4 6.6 3.7 63 3.0 NNW 13 17 7 9 1000.5 1000.6 0.0
25/06:30pm 10.9 6.2 3.0 58 3.4 NW 17 28 9 15 1000.6 1000.7 0.0
25/06:00pm 10.8 7.8 6.0 72 2.2 N 11 19 6 10 1001.2 1001.3 0.0
25/05:30pm 11.0 8.7 5.5 69 2.5 NW 7 9 4 5 1001.3 1001.4 0.0
25/05:00pm 11.0 8.7 4.9 66 2.8 NNW 6 7 3 4 1001.3 1001.4 0.0
25/04:30pm 11.0 8.9 6.0 71 2.3 NNW 6 9 3 5 1001.3 1001.4 0.0
25/04:00pm 10.9 7.8 5.7 70 2.4 N 11 11 6 6 1001.1 1001.2 0.0

Other Formats:

Comma delimited format used in spreadsheet applications
http://www.bom.gov.au/fwo/IDT60801/IDT60801.94988.axf

JavaScript Object Notation format (JSON) in row-major order
http://www.bom.gov.au/fwo/IDT60801/IDT60801.94988.json